createdAt,value
2017-04-02T00:00:35.156Z,13.57
2017-04-02T00:01:15.567Z,13.6
2017-04-02T00:01:55.971Z,13.57
2017-04-02T00:02:36.409Z,13.54
2017-04-02T00:03:16.813Z,13.49
2017-04-02T00:03:57.229Z,13.57
2017-04-02T00:04:37.647Z,13.55
2017-04-02T00:06:38.249Z,13.5
2017-04-02T00:07:26.561Z,13.49
2017-04-02T00:08:15.311Z,13.52
2017-04-02T00:09:03.958Z,13.45
2017-04-02T00:09:52.895Z,13.49
2017-04-02T00:10:41.160Z,13.52
2017-04-02T00:11:29.972Z,13.45
2017-04-02T00:12:18.534Z,13.43
2017-04-02T00:13:07.240Z,13.42
2017-04-02T00:13:55.315Z,13.36
2017-04-02T00:14:44.214Z,13.31
2017-04-02T00:15:32.719Z,13.39
2017-04-02T00:16:21.577Z,13.36
2017-04-02T00:17:10.389Z,13.26
2017-04-02T00:17:58.796Z,13.33
2017-04-02T00:18:47.246Z,13.26
2017-04-02T00:19:36.183Z,13.24
2017-04-02T00:20:24.448Z,13.24
2017-04-02T00:21:13.276Z,13.17
2017-04-02T00:22:02.080Z,13.12
2017-04-02T00:22:50.702Z,13.16
2017-04-02T00:23:38.856Z,13.09
2017-04-02T00:24:27.693Z,13.08
2017-04-02T00:25:16.519Z,13.03
2017-04-02T00:26:05.105Z,13.02
2017-04-02T00:26:53.346Z,12.99
2017-04-02T00:27:41.964Z,12.91
2017-04-02T00:28:30.696Z,12.93
2017-04-02T00:29:19.343Z,12.8
2017-04-02T00:30:08.178Z,12.75
2017-04-02T00:30:56.749Z,12.76
2017-04-02T00:31:45.325Z,12.69
2017-04-02T00:32:34.016Z,12.68
2017-04-02T00:33:22.418Z,12.65
2017-04-02T00:34:10.994Z,12.62
2017-04-02T00:34:59.990Z,12.73
2017-04-02T00:35:48.213Z,12.54
2017-04-02T00:36:37.120Z,12.62
2017-04-02T00:37:25.792Z,12.63
2017-04-02T00:38:13.958Z,12.76
2017-04-02T00:39:04.719Z,12.63
2017-04-02T00:39:53.566Z,12.61
2017-04-02T00:40:41.861Z,12.66
2017-04-02T00:41:30.356Z,12.69
2017-04-02T00:42:19.068Z,12.68
2017-04-02T00:43:08.102Z,12.61
2017-04-02T00:43:56.423Z,12.66
2017-04-02T00:44:44.958Z,12.66
2017-04-02T00:45:33.734Z,12.72
2017-04-02T00:46:22.611Z,12.66
2017-04-02T00:47:11.284Z,12.66
2017-04-02T00:47:59.869Z,12.75
2017-04-02T00:48:48.218Z,12.7
2017-04-02T00:49:37.205Z,12.73
2017-04-02T00:50:25.457Z,12.68
2017-04-02T00:51:13.975Z,12.65
2017-04-02T00:52:02.970Z,12.8
2017-04-02T00:52:51.683Z,12.8
2017-04-02T00:53:40.268Z,12.63
2017-04-02T00:54:28.832Z,12.62
2017-04-02T00:55:17.201Z,12.68
2017-04-02T00:56:06.176Z,12.58
2017-04-02T00:56:54.471Z,12.63
2017-04-02T00:57:43.220Z,12.62
2017-04-02T00:58:32.238Z,12.63
2017-04-02T00:59:20.457Z,12.63
2017-04-02T01:00:09.181Z,12.61
2017-04-02T01:00:57.647Z,12.62
2017-04-02T01:01:46.699Z,12.63
2017-04-02T01:02:32.290Z,12.63
2017-04-02T01:03:20.880Z,12.63
2017-04-02T01:04:09.406Z,12.63
2017-04-02T01:04:55.824Z,12.62
2017-04-02T01:05:36.213Z,12.63
2017-04-02T01:06:16.671Z,12.63
2017-04-02T01:06:57.059Z,12.65
2017-04-02T01:07:37.483Z,12.63
2017-04-02T01:08:17.915Z,12.68
2017-04-02T01:08:58.269Z,12.65
2017-04-02T01:09:38.704Z,12.69
2017-04-02T01:10:19.197Z,12.58
2017-04-02T01:10:59.536Z,12.68
2017-04-02T01:11:39.918Z,12.63
2017-04-02T01:12:20.331Z,12.68
2017-04-02T01:13:00.733Z,12.63
2017-04-02T01:13:41.125Z,12.66
2017-04-02T01:14:21.528Z,12.58
2017-04-02T01:15:01.940Z,12.63
2017-04-02T01:15:42.347Z,12.72
2017-04-02T01:16:22.751Z,12.61
2017-04-02T01:17:03.145Z,12.62
2017-04-02T01:17:43.527Z,12.62
2017-04-02T01:18:23.930Z,12.57
2017-04-02T01:19:04.398Z,12.69
2017-04-02T01:19:44.827Z,12.61
2017-04-02T01:20:25.243Z,12.68
2017-04-02T01:21:05.709Z,12.61
2017-04-02T01:21:46.061Z,12.58
2017-04-02T01:22:26.518Z,12.7
2017-04-02T01:23:06.914Z,12.63
2017-04-02T01:23:47.329Z,12.65
2017-04-02T01:24:27.767Z,12.72
2017-04-02T01:25:08.201Z,12.58
2017-04-02T01:25:48.567Z,12.58
2017-04-02T01:26:28.966Z,12.76
2017-04-02T01:27:09.362Z,12.61
2017-04-02T01:27:49.790Z,12.65
2017-04-02T01:28:30.230Z,12.76
2017-04-02T01:29:10.591Z,12.66
2017-04-02T01:29:51.037Z,12.61
2017-04-02T01:30:31.460Z,12.65
2017-04-02T01:31:11.840Z,12.69
2017-04-02T01:31:52.288Z,12.62
2017-04-02T01:32:32.650Z,12.65
2017-04-02T01:33:13.034Z,12.66
2017-04-02T01:33:53.514Z,12.61
2017-04-02T01:34:33.877Z,12.61
2017-04-02T01:35:14.297Z,12.65
2017-04-02T01:35:54.684Z,12.69
2017-04-02T01:36:35.079Z,12.57
2017-04-02T01:37:15.468Z,12.69
2017-04-02T01:37:55.943Z,12.58
2017-04-02T01:38:36.308Z,12.78
2017-04-02T01:39:16.761Z,12.58
2017-04-02T01:39:57.192Z,12.66
2017-04-02T01:40:38.017Z,12.62
2017-04-02T01:41:18.412Z,12.61
2017-04-02T01:41:58.827Z,12.7
2017-04-02T01:42:39.210Z,12.63
2017-04-02T01:43:19.687Z,12.66
2017-04-02T01:44:00.096Z,12.57
2017-04-02T01:44:40.490Z,12.51
2017-04-02T01:45:20.894Z,12.5
2017-04-02T01:46:01.297Z,12.54
2017-04-02T01:46:41.685Z,12.48
2017-04-02T01:47:22.120Z,12.53
2017-04-02T01:48:02.514Z,12.51
2017-04-02T01:48:42.922Z,12.53
2017-04-02T01:49:23.319Z,12.5
2017-04-02T01:50:03.736Z,12.5
2017-04-02T01:50:44.105Z,12.39
2017-04-02T01:51:24.508Z,12.48
2017-04-02T01:52:04.921Z,12.45
2017-04-02T01:52:45.320Z,12.47
2017-04-02T01:53:25.737Z,12.45
2017-04-02T01:55:05.801Z,12.44
2017-04-02T01:55:54.438Z,12.39
2017-04-02T01:56:43.101Z,12.36
2017-04-02T01:57:31.608Z,12.33
2017-04-02T01:58:20.207Z,12.32
2017-04-02T01:59:09.060Z,12.37
2017-04-02T01:59:58.034Z,12.36
2017-04-02T02:00:46.511Z,12.35
2017-04-02T02:01:34.580Z,12.39
2017-04-02T02:02:23.230Z,12.39
2017-04-02T02:03:12.045Z,12.39
2017-04-02T02:04:00.620Z,12.32
2017-04-02T02:04:49.525Z,12.28
2017-04-02T02:05:38.044Z,12.32
2017-04-02T02:06:26.575Z,12.26
2017-04-02T02:07:15.043Z,12.26
2017-04-02T02:08:03.817Z,12.33
2017-04-02T02:08:52.283Z,12.23
2017-04-02T02:09:41.081Z,12.21
2017-04-02T02:10:29.268Z,12.36
2017-04-02T02:11:18.559Z,12.33
2017-04-02T02:12:06.582Z,12.3
2017-04-02T02:12:55.510Z,12.25
2017-04-02T02:13:44.415Z,12.32
2017-04-02T02:14:33.062Z,12.28
2017-04-02T02:15:21.533Z,12.37
2017-04-02T02:16:09.928Z,12.33
2017-04-02T02:16:58.886Z,12.33
2017-04-02T02:17:47.112Z,12.33
2017-04-02T02:18:36.169Z,12.28
2017-04-02T02:19:24.613Z,12.25
2017-04-02T02:20:13.180Z,12.25
2017-04-02T02:21:02.205Z,12.29
2017-04-02T02:21:50.598Z,12.33
2017-04-02T02:22:38.964Z,12.21
2017-04-02T02:23:27.980Z,12.35
2017-04-02T02:24:16.143Z,12.33
2017-04-02T02:25:05.222Z,12.29
2017-04-02T02:25:53.333Z,12.21
2017-04-02T02:26:41.803Z,12.26
2017-04-02T02:27:30.483Z,12.26
2017-04-02T02:28:18.884Z,12.3
2017-04-02T02:29:07.493Z,12.25
2017-04-02T02:29:55.966Z,12.2
2017-04-02T02:31:47.814Z,12.25
2017-04-02T02:32:35.830Z,12.2
2017-04-02T02:33:24.741Z,12.15
2017-04-02T02:34:13.298Z,12.25
2017-04-02T02:35:01.753Z,12.21
2017-04-02T02:35:50.125Z,12.17
2017-04-02T02:36:39.241Z,12.23
2017-04-02T02:37:27.443Z,12.2
2017-04-02T02:38:15.974Z,12.23
2017-04-02T02:39:04.839Z,12.14
2017-04-02T02:39:53.210Z,12.14
2017-04-02T02:40:42.154Z,12.15
2017-04-02T02:41:30.360Z,12.12
2017-04-02T02:42:19.249Z,12.15
2017-04-02T02:43:06.302Z,12.11
2017-04-02T02:44:47.127Z,12.17
2017-04-02T02:45:35.711Z,12.07
2017-04-02T02:46:24.085Z,12.14
2017-04-02T02:47:12.685Z,12.12
2017-04-02T02:48:01.229Z,12.08
2017-04-02T02:48:50.016Z,12.05
2017-04-02T02:49:38.629Z,12.08
2017-04-02T02:50:26.699Z,12.11
2017-04-02T02:51:15.299Z,11.99
2017-04-02T02:52:04.176Z,12.08
2017-04-02T02:52:52.644Z,12.02
2017-04-02T02:53:40.992Z,12.1
2017-04-02T02:54:30.021Z,12.1
2017-04-02T02:55:18.709Z,12.08
2017-04-02T02:56:07.112Z,12.05
2017-04-02T02:56:55.732Z,12.17
2017-04-02T02:57:44.324Z,12.11
2017-04-02T02:58:32.887Z,12.07
2017-04-02T02:59:21.732Z,12.1
2017-04-02T03:00:10.176Z,12.1
2017-04-02T03:00:58.722Z,12.18
2017-04-02T03:01:47.190Z,12.2
2017-04-02T03:02:35.556Z,12.17
2017-04-02T03:03:24.585Z,12.11
2017-04-02T03:04:13.075Z,12.1
2017-04-02T03:04:57.794Z,12.1
2017-04-02T03:05:46.788Z,12.1
2017-04-02T03:06:35.389Z,12.12
2017-04-02T03:07:23.662Z,12.11
2017-04-02T03:08:12.062Z,12.02
2017-04-02T03:08:58.506Z,12.1
2017-04-02T03:11:13.007Z,12.07
2017-04-02T03:12:01.906Z,11.96
2017-04-02T03:12:50.349Z,11.93
2017-04-02T03:13:37.934Z,11.85
2017-04-02T03:14:25.120Z,11.83
2017-04-02T03:15:14.029Z,11.81
2017-04-02T03:16:02.614Z,11.74
2017-04-02T03:16:51.096Z,11.7
2017-04-02T03:17:39.974Z,11.68
2017-04-02T03:18:28.218Z,11.58
2017-04-02T03:19:16.810Z,11.55
2017-04-02T03:20:05.641Z,11.48
2017-04-02T03:20:54.056Z,11.48
2017-04-02T03:21:43.034Z,11.4
2017-04-02T03:22:31.196Z,11.43
2017-04-02T03:23:19.875Z,11.26
2017-04-02T03:24:08.379Z,11.27
2017-04-02T03:24:57.488Z,11.34
2017-04-02T03:25:46.107Z,11.25
2017-04-02T03:26:34.238Z,11.22
2017-04-02T03:27:23.100Z,11.31
2017-04-02T03:28:11.753Z,11.19
2017-04-02T03:29:00.731Z,11.18
2017-04-02T03:29:48.836Z,11.23
2017-04-02T03:30:37.588Z,11.22
2017-04-02T03:31:26.181Z,11.22
2017-04-02T03:32:14.979Z,11.22
2017-04-02T03:33:03.292Z,11.23
2017-04-02T03:33:51.826Z,11.2
2017-04-02T03:34:40.843Z,11.25
2017-04-02T03:35:29.602Z,11.23
2017-04-02T03:36:17.685Z,11.19
2017-04-02T03:37:06.801Z,11.2
2017-04-02T03:37:52.955Z,11.18
2017-04-02T03:38:33.197Z,11.22
2017-04-02T03:39:13.626Z,11.2
2017-04-02T03:39:53.993Z,11.19
2017-04-02T03:40:34.383Z,11.15
2017-04-02T03:41:14.804Z,11.15
2017-04-02T03:41:55.177Z,11.2
2017-04-02T03:42:35.606Z,11.16
2017-04-02T03:43:15.979Z,11.2
2017-04-02T03:43:56.394Z,11.19
2017-04-02T03:44:36.770Z,11.2
2017-04-02T03:45:17.197Z,11.2
2017-04-02T03:45:57.572Z,11.18
2017-04-02T03:46:37.996Z,11.18
2017-04-02T03:47:18.369Z,11.13
2017-04-02T03:47:58.760Z,11.19
2017-04-02T03:48:39.173Z,11.18
2017-04-02T03:49:19.595Z,11.19
2017-04-02T03:50:00.008Z,11.19
2017-04-02T03:50:40.414Z,11.15
2017-04-02T03:51:20.844Z,11.18
2017-04-02T03:52:01.270Z,11.13
2017-04-02T03:52:41.637Z,11.19
2017-04-02T03:53:22.076Z,11.12
2017-04-02T03:54:02.474Z,11.19
2017-04-02T03:54:42.854Z,11.19
2017-04-02T03:55:23.389Z,11.2
2017-04-02T03:56:03.679Z,11.16
2017-04-02T03:56:44.106Z,11.18
2017-04-02T03:57:24.539Z,11.15
2017-04-02T03:58:04.906Z,11.18
2017-04-02T03:58:45.327Z,11.19
2017-04-02T03:59:25.786Z,11.18
2017-04-02T04:00:06.200Z,11.2
2017-04-02T04:00:46.601Z,11.13
2017-04-02T04:01:27.017Z,11.23
2017-04-02T04:02:07.381Z,11.19
2017-04-02T04:02:48.746Z,11.23
2017-04-02T04:03:29.137Z,11.13
2017-04-02T04:04:10.244Z,11.16
2017-04-02T04:04:50.620Z,11.18
2017-04-02T04:05:31.028Z,11.2
2017-04-02T04:06:11.389Z,11.15
2017-04-02T04:06:51.779Z,11.13
2017-04-02T04:07:32.224Z,11.18
2017-04-02T04:08:12.561Z,11.18
2017-04-02T04:08:53.062Z,11.19
2017-04-02T04:09:33.422Z,11.15
2017-04-02T04:10:13.867Z,11.15
2017-04-02T04:10:55.173Z,11.18
2017-04-02T04:11:35.529Z,11.16
2017-04-02T04:12:15.960Z,11.16
2017-04-02T04:12:56.407Z,11.18
2017-04-02T04:13:36.845Z,11.15
2017-04-02T04:14:17.274Z,11.13
2017-04-02T04:14:57.646Z,11.18
2017-04-02T04:15:38.053Z,11.18
2017-04-02T04:16:18.449Z,11.19
2017-04-02T04:16:58.881Z,11.19
2017-04-02T04:17:39.293Z,11.31
2017-04-02T04:18:19.696Z,11.3
2017-04-02T04:19:00.104Z,11.25
2017-04-02T04:19:40.576Z,11.23
2017-04-02T04:20:20.947Z,11.27
2017-04-02T04:21:01.323Z,11.27
2017-04-02T04:21:41.726Z,11.34
2017-04-02T04:22:22.134Z,11.34
2017-04-02T04:23:02.616Z,11.31
2017-04-02T04:23:43.056Z,11.31
2017-04-02T04:24:23.480Z,11.33
2017-04-02T04:25:03.908Z,11.31
2017-04-02T04:25:44.291Z,11.33
2017-04-02T04:26:24.721Z,11.35
2017-04-02T04:27:05.101Z,11.33
2017-04-02T04:27:45.476Z,11.25
2017-04-02T04:28:25.924Z,11.35
2017-04-02T04:29:06.308Z,11.34
2017-04-02T04:29:46.865Z,11.23
2017-04-02T04:30:27.280Z,11.26
2017-04-02T04:31:07.698Z,11.27
2017-04-02T04:31:48.148Z,11.25
2017-04-02T04:32:28.541Z,11.3
2017-04-02T04:33:08.977Z,11.25
2017-04-02T04:33:49.378Z,11.19
2017-04-02T04:34:29.795Z,11.22
2017-04-02T04:35:10.205Z,11.2
2017-04-02T04:35:50.589Z,11.18
2017-04-02T04:36:32.592Z,11.18
2017-04-02T04:37:14.749Z,11.23
2017-04-02T04:37:55.825Z,11.22
2017-04-02T04:38:36.261Z,11.18
2017-04-02T04:39:16.729Z,11.19
2017-04-02T04:40:00.479Z,11.25
2017-04-02T04:40:40.933Z,11.25
2017-04-02T04:41:23.106Z,11.16
2017-04-02T04:42:03.478Z,11.18
2017-04-02T04:42:44.904Z,11.16
2017-04-02T04:43:26.697Z,11.13
2017-04-02T04:44:07.061Z,11.12
2017-04-02T04:44:47.962Z,11.12
2017-04-02T04:45:30.002Z,11.12
2017-04-02T04:46:10.401Z,11.1
2017-04-02T04:46:52.582Z,11.05
2017-04-02T04:47:33.010Z,11.05
2017-04-02T04:48:13.421Z,11.1
2017-04-02T04:48:53.820Z,11.12
2017-04-02T04:49:34.223Z,11.05
2017-04-02T04:50:14.664Z,11.1
2017-04-02T04:50:56.481Z,11.15
2017-04-02T04:51:38.633Z,11.1
2017-04-02T04:52:19.588Z,11.1
2017-04-02T04:52:59.969Z,11.19
2017-04-02T04:53:40.392Z,11.18
2017-04-02T04:54:20.805Z,11.23
2017-04-02T04:55:01.211Z,11.19
2017-04-02T04:55:41.634Z,11.18
2017-04-02T04:56:22.074Z,11.15
2017-04-02T04:57:02.533Z,11.2
2017-04-02T04:57:42.884Z,11.2
2017-04-02T04:58:23.308Z,11.19
2017-04-02T04:59:03.705Z,11.22
2017-04-02T04:59:44.188Z,11.26
2017-04-02T05:00:24.630Z,11.3
2017-04-02T05:01:05.039Z,11.3
2017-04-02T05:01:45.416Z,11.3
2017-04-02T05:02:25.839Z,11.34
2017-04-02T05:03:06.241Z,11.26
2017-04-02T05:03:46.634Z,11.33
2017-04-02T05:04:27.041Z,11.34
2017-04-02T05:05:07.445Z,11.27
2017-04-02T05:05:47.850Z,11.35
2017-04-02T05:06:28.254Z,11.33
2017-04-02T05:07:08.667Z,11.33
2017-04-02T05:07:49.159Z,11.3
2017-04-02T05:08:29.525Z,11.33
2017-04-02T05:09:09.944Z,11.25
2017-04-02T05:09:50.349Z,11.34
2017-04-02T05:10:30.780Z,11.23
2017-04-02T05:11:11.206Z,11.25
2017-04-02T05:11:51.603Z,11.19
2017-04-02T05:12:32.018Z,11.18
2017-04-02T05:13:12.425Z,11.15
2017-04-02T05:13:52.814Z,11.16
2017-04-02T05:14:33.206Z,11.19
2017-04-02T05:15:13.565Z,11.1
2017-04-02T05:15:54.036Z,11.1
2017-04-02T05:16:34.399Z,10.98
2017-04-02T05:17:14.840Z,11.07
2017-04-02T05:17:55.271Z,10.98
2017-04-02T05:18:35.678Z,10.95
2017-04-02T05:19:16.099Z,10.9
2017-04-02T05:19:56.526Z,10.97
2017-04-02T05:20:36.919Z,10.98
2017-04-02T05:21:17.305Z,10.95
2017-04-02T05:21:57.729Z,10.9
2017-04-02T05:22:38.145Z,10.87
2017-04-02T05:23:18.546Z,10.87
2017-04-02T05:23:59.020Z,10.94
2017-04-02T05:24:39.450Z,10.89
2017-04-02T05:25:19.865Z,10.83
2017-04-02T05:26:00.347Z,10.86
2017-04-02T05:26:40.701Z,10.84
2017-04-02T05:27:21.087Z,10.86
2017-04-02T05:28:01.523Z,10.87
2017-04-02T05:28:41.908Z,10.98
2017-04-02T05:29:22.312Z,10.9
2017-04-02T05:30:02.698Z,10.95
2017-04-02T05:30:43.136Z,10.94
2017-04-02T05:31:23.581Z,10.94
2017-04-02T05:32:04.502Z,10.92
2017-04-02T05:32:44.885Z,10.94
2017-04-02T05:33:25.342Z,10.95
2017-04-02T05:34:05.789Z,11.02
2017-04-02T05:34:46.225Z,11.07
2017-04-02T05:35:26.622Z,11.1
2017-04-02T05:36:07.008Z,11.13
2017-04-02T05:36:47.447Z,11.15
2017-04-02T05:37:27.803Z,11.1
2017-04-02T05:38:08.233Z,11.1
2017-04-02T05:38:48.642Z,11.22
2017-04-02T05:39:29.058Z,11.13
2017-04-02T05:40:09.496Z,11.16
2017-04-02T05:40:49.879Z,11.25
2017-04-02T05:41:30.314Z,11.37
2017-04-02T05:42:10.728Z,11.33
2017-04-02T05:42:51.125Z,11.26
2017-04-02T05:43:31.537Z,11.4
2017-04-02T05:44:11.970Z,11.38
2017-04-02T05:44:52.341Z,11.41
2017-04-02T05:45:32.832Z,11.51
2017-04-02T05:46:13.238Z,11.4
2017-04-02T05:46:53.626Z,11.44
2017-04-02T05:47:34.020Z,11.55
2017-04-02T05:48:14.424Z,11.53
2017-04-02T05:48:55.554Z,11.53
2017-04-02T05:49:35.930Z,11.49
2017-04-02T05:50:17.377Z,11.56
2017-04-02T05:51:00.316Z,11.55
2017-04-02T05:53:17.827Z,11.6
2017-04-02T05:54:03.486Z,11.6
2017-04-02T05:55:52.415Z,11.65
2017-04-02T10:25:03.313Z,22.99
2017-04-02T10:25:51.477Z,22.78
2017-04-02T10:26:43.634Z,22.49
2017-04-02T10:27:35.136Z,22.34
2017-04-02T10:28:26.346Z,22.25
2017-04-02T10:29:13.574Z,22.01
2017-04-02T10:30:03.835Z,21.94
2017-04-02T10:30:57.707Z,21.8
2017-04-02T10:32:31.612Z,21.7
2017-04-02T10:33:20.038Z,21.7
2017-04-02T10:34:09.383Z,21.59
2017-04-02T10:34:59.520Z,21.3
2017-04-02T10:35:50.334Z,21.23
2017-04-02T10:36:39.244Z,21.14
2017-04-02T10:37:28.769Z,21.07
2017-04-02T10:38:18.085Z,21.08
2017-04-02T10:39:07.434Z,21.08
2017-04-02T10:39:59.194Z,21.14
2017-04-02T10:40:51.748Z,21.13
2017-04-02T10:41:40.813Z,21.15
2017-04-02T10:42:31.528Z,21.35
2017-04-02T10:43:21.016Z,21.45
2017-04-02T10:44:10.949Z,21.66
2017-04-02T10:45:00.094Z,21.81
2017-04-02T10:45:48.487Z,21.91
2017-04-02T10:46:37.172Z,22.06
2017-04-02T10:47:25.837Z,22.22
2017-04-02T10:48:13.905Z,22.33
2017-04-02T10:49:02.505Z,22.47
2017-04-02T10:49:52.303Z,22.51
2017-04-02T10:50:39.626Z,22.7
2017-04-02T10:51:29.372Z,22.77
2017-04-02T10:52:20.186Z,22.98
2017-04-02T10:53:13.299Z,23.1
2017-04-02T10:54:05.993Z,23.47
2017-04-02T10:54:56.649Z,23.84
2017-04-02T10:55:45.994Z,23.91
2017-04-02T10:56:33.431Z,24.04
2017-04-02T10:57:23.950Z,24.13
2017-04-02T10:58:12.307Z,24.28
2017-04-02T10:59:01.699Z,24.36
2017-04-02T10:59:50.698Z,24.44
2017-04-02T11:00:38.960Z,24.46
2017-04-02T11:01:28.506Z,24.43
2017-04-02T11:02:17.313Z,24.4
2017-04-02T11:03:06.305Z,24.19
2017-04-02T11:03:55.062Z,24.13
2017-04-02T11:04:44.731Z,24.16
2017-04-02T11:05:33.929Z,24.06
2017-04-02T11:06:22.967Z,24.11
2017-04-02T11:07:11.668Z,24.07
2017-04-02T11:08:01.498Z,24.04
2017-04-02T11:08:50.558Z,24.07
2017-04-02T11:09:39.462Z,24.01
2017-04-02T11:10:27.941Z,24.1
2017-04-02T11:11:17.112Z,24.14
2017-04-02T11:12:06.127Z,24.31
2017-04-02T11:12:56.442Z,24.36
2017-04-02T11:13:44.228Z,24.46
2017-04-02T11:14:32.995Z,24.53
2017-04-02T11:15:21.918Z,24.62
2017-04-02T11:16:12.201Z,24.69
2017-04-02T11:17:00.583Z,24.69
2017-04-02T11:17:49.883Z,24.84
2017-04-02T11:18:38.924Z,24.88
2017-04-02T11:19:27.419Z,24.86
2017-04-02T11:20:16.270Z,24.97
2017-04-02T11:21:05.220Z,24.88
2017-04-02T11:21:54.492Z,24.75
2017-04-02T11:22:41.460Z,24.66
2017-04-02T11:23:21.638Z,24.55
2017-04-02T11:24:02.317Z,24.48
2017-04-02T11:24:43.108Z,24.41
2017-04-02T11:25:23.658Z,24.4
2017-04-02T11:26:04.688Z,24.36
2017-04-02T11:26:49.063Z,24.31
2017-04-02T11:27:30.212Z,24.4
2017-04-02T11:28:10.855Z,24.25
2017-04-02T11:28:51.823Z,24.13
2017-04-02T11:29:32.608Z,24.03
2017-04-02T11:31:24.388Z,24
2017-04-02T11:32:12.915Z,24
2017-04-02T11:33:02.054Z,24.07
2017-04-02T11:33:51.951Z,24.16
2017-04-02T11:34:41.596Z,24.18
2017-04-02T11:35:30.736Z,24.32
2017-04-02T11:36:19.577Z,24.31
2017-04-02T11:37:08.282Z,24.32
2017-04-02T11:37:57.357Z,24.38
2017-04-02T11:38:46.931Z,24.41
2017-04-02T11:39:35.949Z,24.46
2017-04-02T11:40:25.362Z,24.44
2017-04-02T11:41:15.236Z,24.5
2017-04-02T11:42:03.492Z,24.41
2017-04-02T11:42:53.507Z,24.4
2017-04-02T11:43:43.796Z,24.16
2017-04-02T11:44:32.196Z,23.99
2017-04-02T11:45:20.973Z,23.85
2017-04-02T11:46:09.935Z,23.66
2017-04-02T11:46:58.477Z,23.49
2017-04-02T11:47:48.193Z,23.2
2017-04-02T11:48:40.752Z,23.01
2017-04-02T11:49:27.601Z,22.8
2017-04-02T11:50:16.347Z,22.67
2017-04-02T11:51:05.056Z,22.59
2017-04-02T11:51:53.876Z,22.56
2017-04-02T11:52:42.892Z,22.4
2017-04-02T11:53:33.539Z,22.31
2017-04-02T11:54:22.464Z,22.23
2017-04-02T11:55:11.014Z,22.16
2017-04-02T11:56:00.752Z,22.1
2017-04-02T11:56:50.380Z,22.15
2017-04-02T11:57:38.599Z,22.22
2017-04-02T11:58:27.368Z,22.37
2017-04-02T11:59:15.820Z,22.44
2017-04-02T12:00:04.994Z,22.81
2017-04-02T12:00:54.805Z,23.28
2017-04-02T12:01:44.362Z,23.76
2017-04-02T12:02:33.448Z,24.06
2017-04-02T12:03:22.323Z,24.5
2017-04-02T12:04:11.509Z,24.81
2017-04-02T12:05:00.345Z,25.26
2017-04-02T12:05:49.515Z,25.52
2017-04-02T12:06:39.007Z,25.66
2017-04-02T12:07:27.651Z,25.78
2017-04-02T12:08:17.120Z,25.92
2017-04-02T12:09:05.907Z,26.04
2017-04-02T12:09:54.615Z,26.29
2017-04-02T12:10:43.598Z,26.46
2017-04-02T12:11:34.557Z,26.66
2017-04-02T12:12:23.529Z,26.79
2017-04-02T12:13:12.949Z,26.88
2017-04-02T12:15:34.749Z,27.23
2017-04-02T12:17:55.444Z,27.47
2017-04-02T12:18:44.157Z,27.66
2017-04-02T12:19:33.182Z,27.82
2017-04-02T12:20:22.187Z,27.98
2017-04-02T12:21:10.607Z,28.16
2017-04-02T12:21:59.415Z,28.15
2017-04-02T12:22:53.427Z,28.15
2017-04-02T12:23:42.864Z,28
2017-04-02T12:24:31.753Z,28.01
2017-04-02T12:25:20.772Z,28.04
2017-04-02T12:26:09.406Z,28
2017-04-02T12:26:58.799Z,28
2017-04-02T12:27:47.938Z,27.95
2017-04-02T12:28:37.186Z,27.86
2017-04-02T12:29:25.788Z,27.85
2017-04-02T12:30:15.659Z,27.5
2017-04-02T12:31:05.049Z,27.34
2017-04-02T12:31:55.265Z,27.38
2017-04-02T12:32:42.632Z,27.25
2017-04-02T12:33:33.556Z,27.18
2017-04-02T12:34:22.871Z,27.37
2017-04-02T12:35:11.900Z,27.38
2017-04-02T12:36:05.362Z,27.33
2017-04-02T12:37:40.241Z,27.47
2017-04-02T12:38:30.761Z,27.43
2017-04-02T12:39:21.033Z,27.3
2017-04-02T12:40:09.410Z,27.41
2017-04-02T12:40:58.617Z,27.3
2017-04-02T12:41:46.977Z,27.35
2017-04-02T12:42:36.922Z,27.28
2017-04-02T12:43:25.492Z,27.34
2017-04-02T12:44:14.471Z,27.28
2017-04-02T12:45:03.220Z,27.23
2017-04-02T12:45:55.155Z,27.3
2017-04-02T12:46:44.020Z,27.28
2017-04-02T12:50:30.980Z,27.61
2017-04-02T12:51:20.712Z,27.71
2017-04-02T12:52:14.660Z,27.68
2017-04-02T12:53:03.099Z,27.66
2017-04-02T12:53:57.438Z,27.58
2017-04-02T12:55:01.663Z,27.43
2017-04-02T12:55:52.881Z,27.37
2017-04-02T12:56:40.642Z,27.22
2017-04-02T12:57:29.444Z,27.23
2017-04-02T12:58:17.968Z,27.3
2017-04-02T12:59:06.501Z,27.37
2017-04-02T12:59:55.306Z,27.35
2017-04-02T13:00:44.417Z,27.33
2017-04-02T13:01:33.506Z,27.4
2017-04-02T13:02:25.074Z,27.41
2017-04-02T13:03:14.399Z,27.25
2017-04-02T13:04:02.699Z,27.34
2017-04-02T13:04:50.959Z,27.28
2017-04-02T13:05:39.961Z,27.44
2017-04-02T13:06:28.668Z,27.37
2017-04-02T13:07:20.995Z,27.25
2017-04-02T13:08:09.406Z,27.22
2017-04-02T13:08:58.717Z,27.22
2017-04-02T13:09:47.509Z,27.26
2017-04-02T13:11:38.182Z,27.15
2017-04-02T13:12:26.022Z,27.11
2017-04-02T13:13:14.967Z,27.08
2017-04-02T13:14:04.184Z,27.03
2017-04-02T13:14:52.471Z,26.92
2017-04-02T13:15:42.576Z,26.85
2017-04-02T13:16:31.433Z,26.64
2017-04-02T13:17:21.529Z,26.61
2017-04-02T13:18:11.685Z,26.56
2017-04-02T13:19:00.257Z,26.48
2017-04-02T13:19:50.078Z,26.42
2017-04-02T13:20:41.497Z,26.27
2017-04-02T13:21:30.694Z,26.3
2017-04-02T13:22:20.048Z,26.33
2017-04-02T13:23:09.376Z,26.36
2017-04-02T13:23:59.356Z,26.29
2017-04-02T13:24:50.327Z,26.18
2017-04-02T13:25:39.040Z,26.1
2017-04-02T13:26:30.526Z,26.16
2017-04-02T13:27:21.954Z,26.1
2017-04-02T13:28:10.452Z,26.1
2017-04-02T13:28:59.850Z,26.06
2017-04-02T13:29:52.073Z,26.11
2017-04-02T13:30:41.248Z,26.03
2017-04-02T13:31:31.098Z,26.13
2017-04-02T13:32:19.528Z,26.22
2017-04-02T13:33:08.390Z,26.15
2017-04-02T13:33:56.611Z,25.98
2017-04-02T13:34:46.686Z,26.01
2017-04-02T13:35:35.861Z,25.88
2017-04-02T13:36:24.917Z,25.8
2017-04-02T13:37:13.815Z,25.85
2017-04-02T13:38:07.098Z,25.8
2017-04-02T13:38:58.914Z,25.77
2017-04-02T13:39:48.424Z,25.8
2017-04-02T13:40:36.370Z,25.83
2017-04-02T13:41:25.000Z,25.91
2017-04-02T13:42:14.143Z,25.86
2017-04-02T13:43:03.144Z,26.03
2017-04-02T13:43:52.038Z,25.98
2017-04-02T13:44:40.804Z,26.18
2017-04-02T13:45:29.915Z,26.29
2017-04-02T13:46:17.197Z,26.39
2017-04-02T13:47:00.277Z,26.31
2017-04-02T13:47:41.115Z,26.29
2017-04-02T13:48:21.401Z,26.29
2017-04-02T13:49:02.259Z,26.11
2017-04-02T13:49:43.416Z,26.04
2017-04-02T13:50:26.674Z,26.01
2017-04-02T13:51:09.017Z,25.93
2017-04-02T13:51:50.399Z,25.89
2017-04-02T13:52:30.819Z,25.89
2017-04-02T13:53:11.704Z,25.92
2017-04-02T13:53:54.055Z,25.86
2017-04-02T13:54:35.129Z,25.83
2017-04-02T13:55:15.717Z,25.78
2017-04-02T13:55:55.962Z,25.81
2017-04-02T13:56:36.412Z,25.74
2017-04-02T13:57:16.788Z,25.7
2017-04-02T13:57:57.401Z,25.77
2017-04-02T13:58:39.476Z,25.73
2017-04-02T13:59:19.141Z,25.61
2017-04-02T13:59:59.554Z,25.62
2017-04-02T14:00:42.590Z,25.66
2017-04-02T14:01:22.978Z,25.66
2017-04-02T14:02:03.402Z,25.61
2017-04-02T14:02:43.995Z,25.62
2017-04-02T14:03:24.308Z,25.58
2017-04-02T14:04:04.713Z,25.51
2017-04-02T14:04:45.344Z,25.39
2017-04-02T14:05:27.059Z,25.33
2017-04-02T14:06:08.139Z,25.21
2017-04-02T14:06:48.600Z,25.31
2017-04-02T14:07:29.084Z,25.29
2017-04-02T14:08:09.494Z,25.19
2017-04-02T14:08:49.921Z,25.24
2017-04-02T14:09:30.361Z,25.21
2017-04-02T14:10:10.744Z,25.11
2017-04-02T14:10:51.206Z,25.09
2017-04-02T14:11:31.629Z,25.04
2017-04-02T14:12:12.030Z,24.96
2017-04-02T14:12:52.804Z,25.01
2017-04-02T14:13:33.168Z,25.06
2017-04-02T14:14:14.462Z,25
2017-04-02T14:14:54.828Z,25.03
2017-04-02T14:15:35.296Z,25.03
2017-04-02T14:16:15.689Z,25.03
2017-04-02T14:16:56.133Z,25.04
2017-04-02T14:17:36.857Z,25.04
2017-04-02T14:18:17.544Z,25
2017-04-02T14:18:58.721Z,25
2017-04-02T14:19:38.950Z,24.97
2017-04-02T14:20:19.409Z,24.97
2017-04-02T14:21:00.253Z,24.99
2017-04-02T14:21:41.215Z,24.96
2017-04-02T14:22:22.552Z,25.01
2017-04-02T14:23:03.243Z,25.03
2017-04-02T14:23:43.681Z,25.04
2017-04-02T14:24:24.099Z,25
2017-04-02T14:25:04.526Z,24.99
2017-04-02T14:25:46.849Z,24.85
2017-04-02T14:26:27.223Z,24.82
2017-04-02T14:27:07.662Z,24.85
2017-04-02T14:27:48.099Z,24.77
2017-04-02T14:28:28.718Z,24.68
2017-04-02T14:29:09.130Z,24.63
2017-04-02T14:29:49.571Z,24.5
2017-04-02T14:30:29.955Z,24.48
2017-04-02T14:31:10.395Z,24.46